Terminal Aerodrome Forecast
Issued by NWS

Home | Current Version | Previous Version | Text Only | Print | Product List | Glossary On
Versions: 1 2 3 4 5 6 7 8 9 10 11 12 13 14 15 16 17 18 19 20 21 22 23 24 25 26 27 28 29
000
FTUS45 KVEF 230246 AAA
TAFLAS
TAF AMD
KLAS 230246Z 2303/2406 10009KT P6SM FEW120
     FM230400 14006KT P6SM FEW120
     FM230500 21006KT P6SM FEW120
     FM231800 09007KT P6SM SCT120
     FM232100 14007KT P6SM FEW120
     FM240000 18007KT P6SM FEW120=

USA.gov is the U.S. government's official web portal to all federal, state and local government web resources and services.